Time;durP1;ratioP1;P1;durP2;ratioP2;P2;SDS_P1;SDS_P2;PMS_P1;PMS_P2;Temp;Humidity;BMP_temperature;BMP_pressure;BME280_temperature;BME280_humidity;BME280_pressure;Samples;Min_cycle;Max_cycle;Signal;HPM_P1;HPM_P2
2022/05/11 00:00:44;;;;;;;5.57;3.40;;;;;;;8.01;82.48;96002.89;1753200;81;20994;-67
2022/05/11 00:03:11;;;;;;;4.23;3.60;;;;;;;7.99;82.13;96003.77;1752797;82;21556;-67
2022/05/11 00:05:39;;;;;;;5.83;3.63;;;;;;;7.98;82.13;96008.13;1753341;81;20963;-67
2022/05/11 00:08:07;;;;;;;4.90;3.50;;;;;;;7.97;82.15;96009.02;1753167;81;21022;-67
2022/05/11 00:10:36;;;;;;;5.67;3.37;;;;;;;7.99;81.96;96007.70;1753226;82;21495;-67
2022/05/11 00:13:04;;;;;;;4.83;3.30;;;;;;;7.92;81.63;96011.22;1753222;82;21556;-66
2022/05/11 00:15:32;;;;;;;4.30;3.23;;;;;;;7.92;81.96;96001.58;1753200;81;21039;-66
2022/05/11 00:17:58;;;;;;;7.30;4.03;;;;;;;7.90;82.51;96009.02;1753087;81;21642;-66
2022/05/11 00:20:25;;;;;;;6.63;3.17;;;;;;;7.84;81.66;96011.64;1753148;81;21057;-67
2022/05/11 00:22:55;;;;;;;5.67;3.70;;;;;;;7.81;82.21;96007.27;1753184;81;20979;-66
2022/05/11 00:25:26;;;;;;;3.83;3.33;;;;;;;7.79;81.97;96010.36;1753217;81;21003;-67
2022/05/11 00:27:54;;;;;;;4.67;3.73;;;;;;;7.79;82.22;96008.61;1753164;81;21023;-67
2022/05/11 00:30:21;;;;;;;7.03;4.03;;;;;;;7.73;82.78;96007.28;1753320;81;21051;-67
2022/05/11 00:32:56;;;;;;;4.33;3.77;;;;;;;7.68;82.56;96006.41;1753052;82;21561;-66
2022/05/11 00:35:24;;;;;;;5.07;3.67;;;;;;;7.65;82.61;96008.17;1753218;82;21015;-67
2022/05/11 00:37:51;;;;;;;6.77;3.50;;;;;;;7.63;83.00;96010.79;1753274;82;21494;-67
2022/05/11 00:40:21;;;;;;;7.00;3.70;;;;;;;7.57;82.28;96006.87;1753120;82;20995;-68
2022/05/11 00:42:48;;;;;;;8.67;3.57;;;;;;;7.57;82.92;96016.92;1753123;82;21015;-68
2022/05/11 00:45:15;;;;;;;6.03;3.83;;;;;;;7.61;82.92;96002.47;1753172;82;21030;-67
2022/05/11 00:49:33;;;;;;;4.73;3.87;;;;;;;7.70;83.40;96004.66;1752822;82;20991;-67
2022/05/11 00:50:34;;;;;;;7.63;3.57;;;;;;;7.74;82.72;96012.13;1748895;82;21499;-69
2022/05/11 00:53:11;;;;;;;3.77;3.43;;;;;;;7.78;82.62;96008.14;1753237;81;20963;-69
2022/05/11 00:55:51;;;;;;;3.40;3.10;;;;;;;7.83;82.47;96012.09;1753176;81;21492;-69
2022/05/11 00:58:44;;;;;;;5.67;3.33;;;;;;;7.87;82.42;96012.53;1743041;82;21066;-69
2022/05/11 01:01:11;;;;;;;4.85;3.33;;;;;;;7.78;81.89;96009.46;1753059;82;21062;-69
2022/05/11 01:03:48;;;;;;;6.53;3.47;;;;;;;7.70;81.72;96008.60;1723516;82;20991;-69
2022/05/11 01:06:17;;;;;;;6.50;3.13;;;;;;;7.70;81.87;96009.05;1737195;82;21023;-69
2022/05/11 01:08:44;;;;;;;4.13;3.37;;;;;;;7.70;82.00;96007.29;1753240;82;21038;-69
2022/05/11 01:11:11;;;;;;;4.70;3.37;;;;;;;7.72;81.80;96005.98;1753136;82;21006;-70
2022/05/11 01:13:41;;;;;;;5.83;3.40;;;;;;;7.68;81.69;95991.97;1753194;81;21517;-70
2022/05/11 01:16:08;;;;;;;4.13;2.90;;;;;;;7.61;81.64;95995.50;1753041;82;21011;-70
2022/05/11 01:18:39;;;;;;;4.50;3.23;;;;;;;7.52;81.34;96006.86;1752938;82;20991;-70
2022/05/11 01:21:07;;;;;;;5.63;3.20;;;;;;;7.46;82.05;96005.98;1753065;81;21058;-70
2022/05/11 01:23:45;;;;;;;3.93;2.87;;;;;;;7.48;82.36;96007.73;1753136;82;21057;-70
2022/05/11 01:26:18;;;;;;;2.73;2.43;;;;;;;7.41;81.91;96007.73;1753433;81;21087;-69
2022/05/11 01:28:54;;;;;;;5.22;3.33;;;;;;;7.40;82.73;96008.61;1753375;82;21081;-69
2022/05/11 01:31:22;;;;;;;8.47;3.83;;;;;;;7.36;82.39;96004.69;1753100;82;21011;-69
2022/05/11 01:33:51;;;;;;;4.10;3.53;;;;;;;7.40;82.78;96007.30;1752922;81;20995;-69
2022/05/11 01:36:31;;;;;;;5.53;3.70;;;;;;;7.32;82.56;96003.36;1753161;81;20987;-69
2022/05/11 01:39:03;;;;;;;6.13;3.30;;;;;;;7.30;82.48;96004.66;1753030;82;21014;-69
2022/05/11 01:41:52;;;;;;;5.90;3.23;;;;;;;7.26;82.83;96013.42;1753206;81;21473;-69
2022/05/11 01:44:20;;;;;;;9.50;4.03;;;;;;;7.17;83.38;96003.35;1752968;82;21071;-69
2022/05/11 01:46:52;;;;;;;7.43;3.17;;;;;;;7.19;83.43;96006.86;1753131;81;20998;-69
2022/05/11 01:49:20;;;;;;;8.33;3.70;;;;;;;7.17;83.25;96002.91;1752748;82;21118;-70
2022/05/11 01:51:48;;;;;;;4.73;3.20;;;;;;;7.12;82.85;96007.27;1753085;81;21512;-70
2022/05/11 01:54:15;;;;;;;6.07;3.27;;;;;;;7.06;82.94;96012.09;1753199;82;21077;-70
2022/05/11 01:56:41;;;;;;;7.70;3.50;;;;;;;7.00;83.36;96000.69;1753246;82;20986;-70
2022/05/11 01:59:08;;;;;;;4.27;3.57;;;;;;;6.94;83.45;96005.50;1753096;82;21011;-69
2022/05/11 02:01:39;;;;;;;5.33;3.87;;;;;;;6.93;83.38;96007.70;1753057;82;21031;-70
2022/05/11 02:07:49;;;;;;;5.10;3.47;;;;;;;6.91;83.72;96003.74;1753215;81;21066;-69
2022/05/11 02:09:19;;;;;;;5.53;3.67;;;;;;;6.81;84.06;95999.80;1753064;81;21042;-69
2022/05/11 02:11:45;;;;;;;4.03;3.50;;;;;;;6.80;83.68;95999.34;1753335;81;20975;-69
2022/05/11 02:14:12;;;;;;;7.40;3.47;;;;;;;6.82;84.05;95993.66;1753029;81;21018;-69
2022/05/11 02:16:38;;;;;;;8.07;3.60;;;;;;;6.86;83.68;96001.55;1753347;82;21026;-69
2022/05/11 02:19:05;;;;;;;4.30;3.33;;;;;;;6.85;83.94;95998.91;1753085;81;21051;-69
2022/05/11 02:21:31;;;;;;;6.57;3.20;;;;;;;6.85;84.05;96005.47;1753030;82;20991;-69
2022/05/11 02:23:58;;;;;;;6.80;2.87;;;;;;;6.81;84.26;95999.80;1753202;82;21011;-69
2022/05/11 02:26:24;;;;;;;4.50;2.53;;;;;;;6.84;84.50;96000.66;1753069;81;21094;-69
2022/05/11 02:28:52;;;;;;;6.70;3.57;;;;;;;6.86;84.26;95999.37;1752902;82;21102;-69
2022/05/11 02:31:19;;;;;;;5.90;3.47;;;;;;;6.85;84.85;96000.22;1753182;81;20948;-70
2022/05/11 02:33:46;;;;;;;4.03;3.07;;;;;;;6.82;84.67;95999.78;1752780;81;21027;-70
2022/05/11 02:36:13;;;;;;;4.70;3.10;;;;;;;6.85;84.61;95999.78;1753180;81;21023;-70
2022/05/11 02:38:42;;;;;;;7.30;3.40;;;;;;;6.87;84.83;95997.17;1752978;81;21002;-70
2022/05/11 02:41:09;;;;;;;4.47;3.13;;;;;;;6.81;84.01;96000.66;1753216;82;20975;-70
2022/05/11 02:43:36;;;;;;;4.23;3.00;;;;;;;6.70;84.09;96002.36;1752953;82;21568;-69
2022/05/11 02:46:03;;;;;;;4.30;2.90;;;;;;;6.66;84.49;96000.18;1753245;81;21503;-70
2022/05/11 02:48:32;;;;;;;5.33;3.10;;;;;;;6.65;84.96;96004.09;1753175;81;21528;-69
2022/05/11 02:50:59;;;;;;;6.77;3.20;;;;;;;6.69;84.74;96008.49;1752996;81;21504;-69
2022/05/11 02:53:29;;;;;;;7.47;3.70;;;;;;;6.77;84.68;96005.89;1753095;82;21052;-69
2022/05/11 02:55:57;;;;;;;5.80;3.37;;;;;;;6.79;84.46;96001.53;1753068;81;20974;-69
2022/05/11 02:58:28;;;;;;;3.93;3.30;;;;;;;6.79;84.53;96005.02;1753282;82;21070;-69
2022/05/11 03:00:58;;;;;;;6.80;3.37;;;;;;;6.75;84.35;96003.25;1753120;81;21031;-69
2022/05/11 03:03:33;;;;;;;4.23;3.03;;;;;;;6.79;84.56;96002.41;1753087;82;21062;-69
2022/05/11 03:05:54;;;;;;;3.20;2.87;;;;;;;6.74;84.38;96008.52;1752825;82;21015;-67
2022/05/11 03:08:21;;;;;;;8.83;3.20;;;;;;;6.70;84.45;96009.82;1753080;82;21015;-66
2022/05/11 03:10:48;;;;;;;4.67;3.07;;;;;;;6.68;84.06;96007.63;1753122;82;21023;-68
2022/05/11 03:13:15;;;;;;;5.83;3.20;;;;;;;6.69;84.55;96005.43;1752953;82;21011;-67
2022/05/11 03:15:42;;;;;;;64.40;28.90;;;;;;;6.66;84.32;96006.73;1752885;81;21022;-67
2022/05/11 03:18:09;;;;;;;59.77;28.13;;;;;;;6.66;84.36;96009.36;1753251;81;21004;-67
2022/05/11 03:20:36;;;;;;;7.30;4.47;;;;;;;6.70;84.52;96011.13;1752799;81;21026;-67
2022/05/11 03:23:03;;;;;;;5.60;3.43;;;;;;;6.79;84.88;96016.83;1753048;82;21011;-67
2022/05/11 03:25:31;;;;;;;4.10;3.10;;;;;;;6.83;84.41;96003.27;1753282;81;21003;-67
2022/05/11 03:28:00;;;;;;;4.17;3.70;;;;;;;6.89;84.48;96008.11;1753062;82;21011;-67
2022/05/11 03:30:27;;;;;;;7.37;5.07;;;;;;;6.92;84.75;96009.42;1753121;81;21019;-66
2022/05/11 03:35:39;;;;;;;5.47;3.20;;;;;;;7.14;84.66;96014.72;1753352;81;21010;-69
2022/05/11 03:38:06;;;;;;;5.03;3.30;;;;;;;7.11;83.86;96014.72;1752992;81;21087;-69
2022/05/11 03:40:34;;;;;;;5.27;4.30;;;;;;;7.15;84.41;96019.08;1753273;81;21039;-70
2022/05/11 03:43:05;;;;;;;14.67;8.43;;;;;;;7.17;84.27;96021.28;1753006;81;21026;-69
2022/05/11 03:45:32;;;;;;;8.43;6.57;;;;;;;7.17;83.58;96026.97;1753639;81;20971;-70
2022/05/11 03:47:59;;;;;;;7.17;4.77;;;;;;;7.18;84.11;96023.02;1753310;81;21105;-70
2022/05/11 03:50:27;;;;;;;4.57;3.70;;;;;;;7.14;83.50;96023.91;1753068;82;21025;-70
2022/05/11 03:52:55;;;;;;;32.87;15.67;;;;;;;7.18;84.93;96021.70;1753389;81;21512;-70
2022/05/11 03:55:24;;;;;;;49.83;24.83;;;;;;;7.14;84.57;96023.46;1753450;82;21031;-70
2022/05/11 03:57:50;;;;;;;57.50;28.03;;;;;;;7.09;84.36;96030.45;1753151;82;21047;-70
2022/05/11 04:00:22;;;;;;;51.97;25.87;;;;;;;7.13;84.48;96033.94;1753310;81;21039;-68
2022/05/11 04:02:50;;;;;;;14.73;9.20;;;;;;;7.17;84.50;96038.78;1753237;81;21015;-66
2022/05/11 04:05:19;;;;;;;6.80;4.27;;;;;;;7.22;84.81;96036.59;1752989;81;21086;-70
2022/05/11 04:07:45;;;;;;;29.00;14.17;;;;;;;7.26;85.12;96042.74;1753255;81;21015;-67
2022/05/11 04:10:15;;;;;;;58.30;27.27;;;;;;;7.23;85.37;96042.71;1753607;81;20979;-67
2022/05/11 04:12:42;;;;;;;60.60;32.07;;;;;;;7.16;84.97;96043.16;1753090;82;20983;-67
2022/05/11 04:15:11;;;;;;;14.63;8.30;;;;;;;7.14;84.85;96049.70;1753481;81;21015;-67
2022/05/11 04:17:38;;;;;;;6.27;4.10;;;;;;;7.20;85.77;96046.20;1753318;81;21007;-67
2022/05/11 04:20:08;;;;;;;16.93;9.63;;;;;;;7.34;86.21;96047.55;1752749;82;20987;-67
2022/05/11 04:22:35;;;;;;;26.03;14.37;;;;;;;7.44;86.49;96050.63;1753225;81;21086;-68
2022/05/11 04:25:02;;;;;;;30.97;17.60;;;;;;;7.54;86.23;96044.95;1752962;81;21094;-68
2022/05/11 04:27:29;;;;;;;25.47;15.07;;;;;;;7.65;86.05;96046.26;1752878;82;21098;-67
2022/05/11 04:29:56;;;;;;;25.77;15.10;;;;;;;7.77;86.16;96046.26;1753259;81;21046;-68
2022/05/11 04:32:22;;;;;;;22.83;14.13;;;;;;;7.85;85.68;96047.13;1753371;81;21441;-68
2022/05/11 04:34:50;;;;;;;22.03;12.80;;;;;;;7.95;85.74;96047.55;1752961;82;21058;-68
2022/05/11 04:37:16;;;;;;;19.20;12.27;;;;;;;8.07;85.54;96048.42;1753483;82;20994;-67
2022/05/11 04:39:43;;;;;;;13.47;8.73;;;;;;;8.17;85.44;96046.22;1753218;81;21011;-68
2022/05/11 04:42:11;;;;;;;16.63;10.83;;;;;;;8.32;85.16;96042.68;1753262;82;21457;-67
2022/05/11 04:44:38;;;;;;;12.80;8.60;;;;;;;8.44;85.24;96047.91;1753060;81;21561;-67
2022/05/11 04:47:11;;;;;;;10.97;8.33;;;;;;;8.56;85.44;96041.74;1753155;81;21070;-67
2022/05/11 04:49:39;;;;;;;;;;;;;;;8.66;85.29;96032.48;1755163;82;21070;-67
2022/05/11 04:52:11;;;;;;;13.60;7.30;;;;;;;8.82;85.10;96042.53;1753352;82;20118;-67
2022/05/11 04:54:42;;;;;;;11.30;7.30;;;;;;;8.97;85.00;96037.63;1752751;82;21030;-70
2022/05/11 04:57:09;;;;;;;7.80;6.70;;;;;;;9.13;85.02;96035.78;1752766;82;21031;-70
2022/05/11 04:59:38;;;;;;;7.27;6.03;;;;;;;9.27;84.92;96035.68;1753146;81;21024;-69
2022/05/11 05:02:06;;;;;;;10.53;6.57;;;;;;;9.42;84.79;96043.92;1753239;81;21038;-70
2022/05/11 05:04:33;;;;;;;8.47;5.47;;;;;;;9.58;84.30;96042.08;1752241;82;21060;-70
2022/05/11 05:07:00;;;;;;;8.23;5.30;;;;;;;9.73;84.20;96038.87;1752992;82;21022;-79
2022/05/11 05:09:27;;;;;;;18.90;6.27;;;;;;;9.90;83.75;96043.11;1753056;82;21505;-74
2022/05/11 05:11:55;;;;;;;6.30;5.57;;;;;;;10.06;83.18;96042.09;1753160;82;21033;-70
2022/05/11 05:14:22;;;;;;;8.83;5.47;;;;;;;10.22;83.36;96031.39;1752816;81;20992;-73
2022/05/11 05:16:49;;;;;;;7.60;5.30;;;;;;;10.33;82.26;96037.45;1753048;82;21477;-71
2022/05/11 05:19:16;;;;;;;8.60;5.70;;;;;;;10.46;82.30;96026.31;1752800;82;21058;-71
2022/05/11 05:21:43;;;;;;;7.45;5.50;;;;;;;10.58;82.51;96027.08;1752412;82;21064;-73
2022/05/11 05:24:10;;;;;;;7.53;5.47;;;;;;;10.76;82.38;96023.77;1753096;82;21512;-72
2022/05/11 05:26:36;;;;;;;7.50;5.37;;;;;;;10.88;82.31;96022.75;1752652;81;21026;-74
2022/05/11 05:31:48;;;;;;;12.60;5.40;;;;;;;11.37;82.39;96026.91;1753448;81;21030;-70
2022/05/11 05:34:16;;;;;;;8.50;4.87;;;;;;;11.55;81.57;96023.57;1753136;82;21055;-69
2022/05/11 05:36:42;;;;;;;10.43;5.78;;;;;;;11.70;81.14;96025.52;1752811;81;21027;-69
2022/05/11 05:39:10;;;;;;;13.50;5.72;;;;;;;11.88;81.00;96020.86;1753154;81;21552;-68
2022/05/11 05:41:36;;;;;;;8.05;5.78;;;;;;;12.07;80.92;96023.62;1753185;82;21014;-67
2022/05/11 05:44:06;;;;;;;8.40;5.85;;;;;;;12.23;80.46;96020.23;1751664;81;21066;-68
2022/05/11 05:46:34;;;;;;;13.32;5.97;;;;;;;12.40;80.18;96015.07;1752279;81;22249;-70
2022/05/11 05:49:01;;;;;;;9.50;5.47;;;;;;;12.53;79.37;96018.79;1752328;81;21109;-69
2022/05/11 05:51:28;;;;;;;7.97;5.58;;;;;;;12.55;78.43;96010.38;1752321;82;21354;-68
2022/05/11 05:53:55;;;;;;;11.80;5.92;;;;;;;12.66;78.57;96010.16;1752242;82;21089;-66
2022/05/11 05:56:22;;;;;;;7.53;5.90;;;;;;;12.72;77.29;96019.73;1752549;81;21030;-65
2022/05/11 05:58:48;;;;;;;6.97;5.60;;;;;;;12.85;77.77;96011.09;1752227;82;21030;-64
2022/05/11 06:01:16;;;;;;;7.75;5.72;;;;;;;12.94;77.62;96014.42;1753272;81;20988;-65
2022/05/11 06:03:44;;;;;;;7.90;5.70;;;;;;;13.07;77.54;96015.48;1752941;82;21011;-66
2022/05/11 06:06:12;;;;;;;10.50;5.83;;;;;;;13.20;77.26;96015.20;1752976;81;21509;-65
2022/05/11 06:08:38;;;;;;;7.20;4.90;;;;;;;13.31;76.63;96016.77;1752924;82;21007;-66
2022/05/11 06:11:07;;;;;;;6.33;5.60;;;;;;;13.36;76.43;96014.43;1752843;81;21031;-64
2022/05/11 06:13:35;;;;;;;9.45;5.30;;;;;;;13.49;76.71;96016.34;1753100;81;21099;-64
2022/05/11 06:16:06;;;;;;;10.30;4.92;;;;;;;13.63;76.17;96017.33;1753163;82;21011;-65
2022/05/11 06:18:35;;;;;;;8.13;5.45;;;;;;;13.76;76.34;96020.13;1752975;81;20994;-65
2022/05/11 06:21:01;;;;;;;6.50;4.65;;;;;;;13.92;75.99;96019.28;1751847;81;21050;-65
2022/05/11 06:23:28;;;;;;;9.63;5.95;;;;;;;14.10;76.00;96012.64;1759238;81;21090;-66
2022/05/11 06:25:55;;;;;;;8.53;5.25;;;;;;;14.25;75.59;96005.60;1769933;81;21117;-66
2022/05/11 06:28:22;;;;;;;13.83;5.08;;;;;;;14.42;75.00;96007.81;1770175;81;21000;-66
2022/05/11 06:30:48;;;;;;;8.30;4.53;;;;;;;14.59;75.12;96011.38;1770575;81;21024;-65
2022/05/11 06:33:15;;;;;;;9.63;4.72;;;;;;;14.76;74.30;95998.07;1770328;81;21024;-65
2022/05/11 06:35:42;;;;;;;9.38;4.80;;;;;;;14.92;74.29;96008.69;1770713;81;21004;-65
2022/05/11 06:38:10;;;;;;;7.42;3.75;;;;;;;15.27;72.44;96010.30;1770148;81;21027;-65
2022/05/11 06:40:38;;;;;;;5.78;3.35;;;;;;;15.27;72.44;96010.30;1770374;81;21036;-66
2022/05/11 06:43:05;;;;;;;5.40;3.40;;;;;;;15.44;71.03;96010.22;1770346;81;21102;-66
2022/05/11 06:45:33;;;;;;;11.75;3.42;;;;;;;15.61;69.96;96015.89;1770810;81;21490;-65
2022/05/11 06:48:00;;;;;;;12.78;4.30;;;;;;;15.79;68.76;96015.79;1770823;81;21047;-65
2022/05/11 06:50:27;;;;;;;7.35;3.67;;;;;;;15.93;65.57;96020.21;1770442;81;21135;-65
2022/05/11 06:52:56;;;;;;;5.30;3.33;;;;;;;16.11;65.55;96016.06;1770039;81;20964;-66
2022/05/11 07:00:55;;;;;;;8.18;2.95;;;;;;;16.61;63.92;96004.59;1770488;81;21079;-67
2022/05/11 07:03:22;;;;;;;9.20;2.83;;;;;;;16.85;62.87;96006.38;1769659;81;21056;-68
2022/05/11 07:05:49;;;;;;;6.33;3.02;;;;;;;17.02;62.17;96008.43;1770124;81;21074;-68
2022/05/11 07:08:16;;;;;;;5.67;2.95;;;;;;;17.18;61.07;95998.52;1770333;81;21086;-68
2022/05/11 07:12:17;;;;;;;4.67;2.70;;;;;;;17.30;61.54;95994.91;1770831;81;21016;-68
2022/05/11 07:13:12;;;;;;;4.70;2.60;;;;;;;17.40;58.19;95999.91;1769634;81;21000;-68
2022/05/11 07:15:39;;;;;;;7.20;2.75;;;;;;;17.51;56.77;96002.56;1770761;81;21016;-68
2022/05/11 07:18:07;;;;;;;5.90;2.60;;;;;;;17.63;55.22;95997.19;1771197;81;21012;-69
2022/05/11 07:20:36;;;;;;;3.92;2.87;;;;;;;17.74;53.79;95997.64;1770748;81;21584;-68
2022/05/11 07:23:07;;;;;;;6.30;2.62;;;;;;;17.83;54.81;95999.56;1777646;81;21003;-68
2022/05/11 07:25:34;;;;;;;3.72;2.72;;;;;;;17.97;54.36;95990.53;1779545;81;21032;-68
2022/05/11 07:28:03;;;;;;;3.30;2.77;;;;;;;18.09;53.56;95983.78;1779080;81;21039;-70
2022/05/11 07:30:37;;;;;;;6.17;2.80;;;;;;;18.16;49.54;95986.13;1778898;81;21019;-69
2022/05/11 07:33:05;;;;;;;8.33;2.80;;;;;;;18.26;50.49;95981.27;1779460;81;21060;-68
2022/05/11 07:35:32;;;;;;;6.53;2.85;;;;;;;18.37;49.33;95978.17;1778888;81;21063;-72
2022/05/11 07:37:59;;;;;;;5.47;2.77;;;;;;;18.45;49.92;95986.71;1779007;81;21122;-69
2022/05/11 07:40:27;;;;;;;4.08;2.87;;;;;;;18.59;51.39;95976.73;1779654;81;21027;-69
2022/05/11 07:42:54;;;;;;;4.10;2.90;;;;;;;18.63;47.61;95977.48;1779249;81;21544;-69
2022/05/11 07:45:23;;;;;;;3.62;2.90;;;;;;;18.71;48.53;95970.85;1779298;81;21031;-70
2022/05/11 07:47:50;;;;;;;2.60;2.40;;;;;;;18.82;47.49;95974.41;1779512;81;21102;-66
2022/05/11 07:50:16;;;;;;;4.87;2.50;;;;;;;18.90;47.25;95971.39;1779550;81;21028;-68
2022/05/11 07:52:44;;;;;;;4.90;2.50;;;;;;;19.01;47.67;95968.63;1779193;81;21026;-68
2022/05/11 07:55:13;;;;;;;7.05;2.80;;;;;;;19.09;44.45;95972.29;1779272;81;21026;-70
2022/05/11 08:00:26;;;;;;;4.78;2.62;;;;;;;19.26;46.34;95967.98;1779805;81;21033;-68
2022/05/11 08:02:53;;;;;;;4.03;2.80;;;;;;;19.24;46.46;95971.58;1779052;81;21027;-71
2022/05/11 08:05:21;;;;;;;4.58;2.72;;;;;;;19.22;46.64;95973.45;1779573;81;21438;-69
2022/05/11 08:07:52;;;;;;;5.70;2.40;;;;;;;19.31;47.57;95969.97;1779009;81;21090;-70
2022/05/11 08:10:24;;;;;;;4.60;3.02;;;;;;;19.37;44.42;95967.84;1778681;81;21130;-70
2022/05/11 08:12:56;;;;;;;3.67;2.98;;;;;;;19.69;47.73;95960.13;1779089;81;21070;-70
2022/05/11 08:15:23;;;;;;;5.35;2.45;;;;;;;19.83;43.69;95960.33;1778849;81;21489;-70
2022/05/11 08:17:52;;;;;;;6.90;2.98;;;;;;;19.76;43.61;95957.55;1778868;81;21509;-70
2022/05/11 08:20:24;;;;;;;5.40;2.70;;;;;;;19.82;40.75;95958.58;1779631;81;21481;-71
2022/05/11 08:22:55;;;;;;;8.28;2.47;;;;;;;19.67;41.40;95965.55;1774196;81;21051;-69
2022/05/11 08:25:23;;;;;;;4.42;2.60;;;;;;;19.61;41.80;95961.80;1770454;81;21031;-68
2022/05/11 08:27:51;;;;;;;3.75;2.20;;;;;;;19.40;41.09;95966.83;1771036;81;21070;-67
2022/05/11 08:33:23;;;;;;;4.83;2.80;;;;;;;19.43;41.84;95959.55;1743331;81;21438;-67
2022/05/11 08:35:59;;;;;;;3.73;2.50;;;;;;;19.63;43.40;95959.93;1757659;81;20983;-66
2022/05/11 08:38:31;;;;;;;4.05;2.58;;;;;;;20.00;44.46;95959.47;1768262;81;21014;-69
2022/05/11 08:41:26;;;;;;;4.50;2.30;;;;;;;20.23;43.01;95959.64;1767892;81;21058;-67
2022/05/11 08:43:51;;;;;;;5.85;3.30;;;;;;;20.13;42.66;95965.08;1767522;81;21465;-69
2022/05/11 08:46:38;;;;;;;7.67;2.65;;;;;;;19.87;42.08;95971.27;1767424;81;21402;-68
2022/05/11 08:49:31;;;;;;;3.17;2.65;;;;;;;19.74;42.51;95973.30;1727262;81;21121;-67
2022/05/11 08:52:02;;;;;;;4.42;2.30;;;;;;;19.72;43.04;95973.84;1767063;81;21082;-68
2022/05/11 08:54:34;;;;;;;5.87;2.40;;;;;;;20.14;40.61;95974.01;1768192;81;21018;-66
2022/05/11 08:57:05;;;;;;;5.92;2.80;;;;;;;20.48;42.73;95974.47;1768241;81;20986;-67
2022/05/11 08:59:33;;;;;;;4.30;2.52;;;;;;;20.85;41.20;95981.98;1768577;81;20995;-71
2022/05/11 09:02:24;;;;;;;6.67;2.80;;;;;;;20.90;38.19;95985.28;1768322;81;21101;-68
2022/05/11 09:04:56;;;;;;;5.92;2.50;;;;;;;20.87;37.40;95983.63;1768655;81;21058;-67
2022/05/11 09:07:23;;;;;;;9.75;2.52;;;;;;;20.86;38.11;95972.97;1768304;81;21022;-68
2022/05/11 09:09:53;;;;;;;5.65;2.50;;;;;;;20.95;38.37;95976.03;1768074;81;21066;-68
2022/05/11 09:12:20;;;;;;;5.00;2.90;;;;;;;21.04;37.93;95982.73;1768636;81;21054;-68
2022/05/11 09:14:56;;;;;;;3.70;2.47;;;;;;;21.01;36.92;95989.59;1767906;81;21042;-68
2022/05/11 09:17:30;;;;;;;4.33;2.87;;;;;;;21.08;35.65;95992.33;1768571;81;21026;-67
2022/05/11 09:20:12;;;;;;;4.30;2.60;;;;;;;21.22;36.38;95994.73;1768502;81;21022;-67
2022/05/11 09:22:59;;;;;;;3.95;2.27;;;;;;;20.96;35.53;95995.22;1766240;81;21521;-67
2022/05/11 09:25:31;;;;;;;5.20;2.67;;;;;;;21.12;39.00;95991.23;1762815;81;20999;-67
2022/05/11 09:28:22;;;;;;;3.10;2.40;;;;;;;21.23;35.65;95990.64;1762839;81;21075;-67
2022/05/11 09:31:08;;;;;;;4.97;2.45;;;;;;;21.36;35.78;95990.35;1763155;81;21018;-67
2022/05/11 09:33:39;;;;;;;4.12;2.52;;;;;;;21.57;37.08;95990.14;1763049;81;21033;-67
2022/05/11 09:36:09;;;;;;;3.67;2.40;;;;;;;21.85;37.13;95992.17;1762119;81;21050;-67
2022/05/11 09:38:43;;;;;;;3.05;2.10;;;;;;;21.97;37.13;95990.13;1763066;81;21061;-68
2022/05/11 09:41:22;;;;;;;4.22;2.62;;;;;;;21.99;33.55;95984.16;1762978;81;21032;-68
2022/05/11 09:43:56;;;;;;;5.65;2.80;;;;;;;22.06;34.47;95995.92;1763266;81;21525;-68
2022/05/11 09:46:30;;;;;;;6.80;2.33;;;;;;;22.27;35.20;95981.73;1762564;81;21595;-67
2022/05/11 09:49:20;;;;;;;5.72;2.67;;;;;;;22.10;33.01;95982.22;1761097;81;21611;-68
2022/05/11 09:51:54;;;;;;;4.58;2.42;;;;;;;21.86;33.56;95994.38;1762718;81;21049;-67
2022/05/11 09:54:37;;;;;;;4.33;2.15;;;;;;;21.61;33.80;95991.23;1762775;81;21058;-67
2022/05/11 09:57:14;;;;;;;4.10;2.20;;;;;;;21.87;32.94;95990.23;1762959;81;21548;-67
2022/05/11 09:59:45;;;;;;;4.53;2.52;;;;;;;22.42;37.50;95981.69;1759019;81;21031;-67
2022/05/11 10:02:35;;;;;;;4.30;2.62;;;;;;;22.49;34.79;95984.02;1763088;81;20978;-67
2022/05/11 10:05:28;;;;;;;6.47;2.85;;;;;;;22.30;34.74;95983.78;1763123;81;20999;-67
2022/05/11 10:08:15;;;;;;;6.92;2.67;;;;;;;22.01;35.68;95992.15;1762964;81;21035;-67
2022/05/11 10:11:16;;;;;;;7.50;2.80;;;;;;;21.80;37.18;95998.28;1763136;81;21039;-68
2022/05/11 10:13:56;;;;;;;6.20;2.83;;;;;;;21.61;37.58;95997.09;1763330;81;21056;-67
2022/05/11 10:22:13;;;;;;;3.70;2.50;;;;;;;21.77;35.99;95995.74;1763214;81;21066;-67
2022/05/11 10:24:55;;;;;;;4.53;2.52;;;;;;;21.56;36.35;95993.31;1762380;81;21007;-67
2022/05/11 10:27:30;;;;;;;6.58;2.50;;;;;;;21.65;36.11;95991.95;1762664;81;21022;-67
2022/05/11 10:30:28;;;;;;;6.87;2.70;;;;;;;22.00;35.64;95985.91;1763016;81;21026;-67
2022/05/11 10:33:09;;;;;;;5.45;2.60;;;;;;;22.39;35.93;95971.12;1762999;81;21034;-67
2022/05/11 10:35:59;;;;;;;5.55;2.90;;;;;;;22.85;34.97;95972.36;1762434;81;21007;-67
2022/05/11 10:38:37;;;;;;;5.28;2.60;;;;;;;23.10;35.57;95974.44;1762577;81;21030;-67
2022/05/11 10:41:37;;;;;;;2.95;2.60;;;;;;;23.35;35.89;95960.80;1763174;81;20983;-68
2022/05/11 10:44:26;;;;;;;4.85;2.40;;;;;;;23.57;36.31;95963.48;1751426;81;21078;-68
2022/05/11 10:47:07;;;;;;;4.12;2.20;;;;;;;23.63;35.56;95959.89;1760285;81;20975;-67
2022/05/11 10:49:39;;;;;;;4.42;2.50;;;;;;;23.10;34.50;95970.89;1763061;81;21038;-68
2022/05/11 10:52:31;;;;;;;4.20;2.35;;;;;;;22.66;35.73;95977.16;1762662;81;21022;-68
2022/05/11 10:55:32;;;;;;;4.55;2.62;;;;;;;22.31;36.13;95980.61;1762912;81;20998;-68
2022/05/11 10:58:49;;;;;;;5.50;2.52;;;;;;;22.04;37.52;95991.48;1762694;81;20963;-68
2022/05/11 11:01:18;;;;;;;3.75;2.65;;;;;;;21.79;37.83;95988.47;1763124;81;21019;-68
2022/05/11 11:04:08;;;;;;;5.37;2.90;;;;;;;21.45;38.49;95993.05;1763139;81;20995;-68
2022/05/11 11:07:11;;;;;;;2.83;2.62;;;;;;;21.35;39.86;95981.92;1762594;81;21572;-68
2022/05/11 11:09:58;;;;;;;4.28;2.60;;;;;;;21.33;39.54;95995.03;1762845;81;21035;-67
2022/05/11 11:12:54;;;;;;;7.58;2.70;;;;;;;21.44;39.85;95991.30;1696147;84;21565;-67
2022/05/11 11:15:26;;;;;;;3.80;2.77;;;;;;;21.82;38.46;95977.55;1755586;81;21034;-67
2022/05/11 11:17:55;;;;;;;3.40;2.35;;;;;;;22.40;37.10;95977.35;1763032;81;21046;-67
2022/05/11 11:20:24;;;;;;;5.45;2.80;;;;;;;22.79;37.53;95978.63;1762844;81;21026;-67
2022/05/11 11:23:14;;;;;;;4.28;2.70;;;;;;;23.11;36.56;95969.95;1762790;81;21035;-67
2022/05/11 11:25:54;;;;;;;5.22;2.50;;;;;;;23.38;35.49;95966.47;1763020;81;21019;-68
2022/05/11 11:28:28;;;;;;;5.53;2.60;;;;;;;23.60;34.76;95965.97;1762892;81;21023;-67
2022/05/11 11:31:15;;;;;;;7.37;2.62;;;;;;;23.84;34.74;95972.50;1762440;81;21082;-68
2022/05/11 11:34:08;;;;;;;11.12;2.40;;;;;;;23.83;36.81;95964.02;1763081;81;21493;-67
2022/05/11 11:36:40;;;;;;;3.33;2.75;;;;;;;23.96;35.99;95969.01;1763308;81;21050;-68
2022/05/11 11:39:14;;;;;;;5.58;2.72;;;;;;;24.31;35.67;95962.22;1762921;81;21006;-68
2022/05/11 11:41:49;;;;;;;4.00;2.90;;;;;;;24.39;33.21;95955.81;1758705;81;21039;-68
2022/05/11 11:44:39;;;;;;;3.55;2.42;;;;;;;24.14;34.92;95960.18;1762963;81;21021;-68
2022/05/11 11:47:30;;;;;;;5.62;2.80;;;;;;;23.96;36.44;95954.19;1765261;81;21074;-67
2022/05/11 11:49:59;;;;;;;3.37;2.50;;;;;;;24.06;35.48;95947.67;1766547;81;20994;-67
2022/05/11 11:52:46;;;;;;;2.70;2.50;;;;;;;23.83;34.41;95951.89;1766325;81;21544;-67
2022/05/11 11:55:30;;;;;;;3.58;2.40;;;;;;;24.30;33.59;95945.17;1766309;81;21122;-67
2022/05/11 11:58:14;;;;;;;5.53;2.65;;;;;;;24.77;32.92;95953.23;1766421;81;21002;-67
2022/05/11 12:00:58;;;;;;;6.12;2.70;;;;;;;24.30;33.45;95947.02;1722148;81;21042;-67
2022/05/11 12:03:30;;;;;;;6.37;2.62;;;;;;;23.61;34.08;95959.60;1766104;81;21092;-67
2022/05/11 12:17:33;;;;;;;3.52;2.22;;;;;;;25.54;33.44;95934.80;1746793;81;21025;-68
2022/05/11 12:20:17;;;;;;;6.42;2.25;;;;;;;26.05;30.96;95931.45;1762961;81;21082;-68
2022/05/11 12:22:55;;;;;;;3.75;2.50;;;;;;;26.44;31.21;95923.17;1766136;81;21050;-68
2022/05/11 12:25:38;;;;;;;3.47;2.25;;;;;;;25.69;30.44;95925.08;1766346;81;21002;-68
2022/05/11 12:28:35;;;;;;;4.90;2.60;;;;;;;25.72;32.70;95926.69;1766439;81;21578;-67
2022/05/11 12:31:03;;;;;;;4.95;2.60;;;;;;;26.38;30.71;95913.66;1766269;81;21445;-67
2022/05/11 12:33:34;;;;;;;7.87;2.52;;;;;;;26.90;29.91;95915.06;1766448;81;21045;-67
2022/05/11 12:36:03;;;;;;;4.62;2.45;;;;;;;27.03;29.85;95911.39;1766477;81;21014;-68